Weather observations for the past three days for
Vero Beach, Vero Beach Municipal Airport
Metric (Imperial)
Date Time (edt) Wind (kph) Vis. (km) Weather Sky Cond. Temperature (ºC) Relative Humidity Wind Chill (°C) Heat Index (°C) Pressure Precipitation (cm)
Air Dwpt 6 hour altimeter (cm) sea level (mb) 1 hr 3 hr 6 hr
Max. Min.
05 08:53 SW 7 16.09 Fair CLR 27.8 25.6 88% 33 76.15 1015.1
05 06:53 Calm 16.09 Fair CLR 24.4 23.3 94% 24 76.07 1014.2
05 05:53 Calm 16.09 Fair CLR 24.4 23.3 94% 24 76.07 1014.0
05 04:53 SW 6 16.09 Fair CLR 26.1 23.9 88% 28 76.05 1013.8
05 03:53 SW 6 16.09 Fair CLR 26.1 23.9 88% 28 76.07 1013.9
05 02:53 SW 6 16.09 Fair CLR 26.1 24.4 90% 28 76.07 1014.1
05 01:53 Calm 16.09 Fair CLR 26.1 24.4 29.4 25.6 90% 28 76.12 1014.8
05 00:53 Calm 16.09 Mostly Cloudy BKN047 26.1 24.4 90% 28 76.2 1015.6
04 23:53 S 6 16.09 Fair CLR 27.8 25 85% 32 76.17 1015.5
04 22:53 SE 7 16.09 Fair CLR 27.8 24.4 82% 32 76.17 1015.4
04 21:53 S 6 16.09 Fair CLR 28.3 24.4 79% 33 76.17 1015.6
04 20:53 S 11 16.09 Fair CLR 28.9 25 80% 34 76.17 1015.3
04 19:53 SE 13 16.09 Fair CLR 29.4 25 32.2 28.9 77% 35 76.12 1014.8
04 18:53 SE 20 16.09 Fair CLR 30 25.6 77% 37 76.1 1014.4
04 17:53 SE 30 G 41 16.09 Fair CLR 31.1 25.6 73% 39 76.05 1013.9
04 16:53 SE 24 G 37 16.09 Fair CLR 31.7 25.6 70% 40 76.1 1014.5
04 15:53 E 19 G 35 16.09 Partly Cloudy SCT024 31.7 26.1 72% 40 76.12 1014.7
04 14:53 SE 20 16.09 Partly Cloudy SCT019 SCT039 30.6 26.7 80% 39 76.17 1015.3
04 13:53 SE 19 16.09 Partly Cloudy SCT024 32.2 26.1 33.9 26.1 70% 41 76.23 1016.0
04 12:53 Vrbl 9 16.09 Partly Cloudy SCT040 32.2 24.4 63% 39 76.25 1016.4
04 11:53 SW 15 16.09 Partly Cloudy SCT032 32.2 23.9 62% 38 76.28 1016.9
04 10:53 S 15 16.09 Partly Cloudy SCT032 31.7 24.4 65% 38 76.28 1016.8
04 09:53 SW 13 16.09 Fair CLR 30.6 25 72% 37 76.23 1016.2
04 08:53 S 7 16.09 Partly Cloudy SCT030 28.3 25 82% 33 76.23 1015.9
04 07:53 Calm 16.09 Partly Cloudy SCT030 26.1 24.4 27.2 25.6 90% 28 76.17 1015.4
04 06:53 SW 6 16.09 Fair CLR 26.1 24.4 90% 28 76.15 1015.0
04 05:53 S 7 16.09 Fair CLR 26.1 24.4 90% 28 76.1 1014.4
04 04:53 S 6 16.09 Fair CLR 26.1 24.4 90% 28 76.07 1014.1
04 03:53 S 6 16.09 Fair CLR 26.1 24.4 90% 28 76.05 1013.9
04 02:53 S 6 16.09 Fair CLR 26.7 24.4 87% 30 76.07 1014.0
04 01:53 SE 6 16.09 Fair CLR 27.2 24.4 27.8 26.1 85% 31 76.1 1014.5
04 00:53 SE 15 16.09 Fair CLR 27.8 25.6 88% 33 76.12 1014.7
03 23:53 SE 7 16.09 Fair CLR 27.8 25.6 88% 33 76.12 1014.9
03 22:53 SE 7 16.09 Fair CLR 26.1 24.4 90% 28 76.15 1015.0
03 21:53 S 6 16.09 Partly Cloudy FEW050 SCT060 26.7 24.4 87% 30 76.17 1015.4
03 20:53 SE 7 16.09 A Few Clouds FEW060 26.7 24.4 87% 30 76.12 1014.7
03 19:53 SE 11 16.09 Fair CLR 27.8 23.3 30 27.2 77% 31 76.12 1014.7
03 18:53 SE 13 16.09 Partly Cloudy SCT024 28.9 25.6 82% 35 76.1 1014.3
03 17:53 SE 15 16.09 Fair CLR 28.9 25 80% 34 76.07 1014.1
03 16:53 E 17 16.09 Fair CLR 30 24.4 72% 36 76 1013.0
03 15:53 E 17 16.09 A Few Clouds FEW100 30 23.9 70% 35 76.05 1013.8
03 14:53 E 17 16.09 Mostly Cloudy FEW016 SCT027 BKN100 28.3 25 82% 33 76.07 1014.2
03 13:53 E 20 16.09 Thunderstorm SCT038 BKN050 29.4 25 31.1 25 77% 35 76.12 1014.8
03 12:53 E 19 16.09 A Few Clouds FEW040 FEW060 29.4 25 77% 35 76.15 1014.9
03 11:53 E 7 16.09 Partly Cloudy FEW027 FEW032 SCT100 30.6 25 72% 37 76.17 1015.4
03 10:53 S 11 16.09 A Few Clouds FEW028 30 23.9 70% 35 76.17 1015.6
03 09:53 S 7 16.09 Fair CLR 29.4 24.4 75% 35 76.15 1015.1
03 08:53 Calm 16.09 Fair CLR 26.1 23.9 88% 28 76.15 1015.0
03 07:53 Calm 16.09 A Few Clouds FEW020 25 24.4 27.2 24.4 96% 25 76.12 1014.9
03 06:53 Calm 16.09 Fair CLR 24.4 23.9 97% 24 76.05 1013.8
03 05:53 Calm 16.09 Mostly Cloudy BKN070 25 23.9 94% 26 76.05 1013.6
03 04:53 Calm 16.09 Fair CLR 25.6 23.9 90% 27 76.02 1013.3
03 03:53 S 9 16.09 Fair CLR 26.1 24.4 90% 28 76 1013.1
03 02:53 SE 7 16.09 Fair CLR 27.2 25.6 91% 31 76.02 1013.2
03 01:53 E 7 16.09 Fair CLR 27.2 25.6 27.8 27.2 91% 31 76.05 1013.6
03 00:53 Calm 16.09 Fair CLR 27.2 25 88% 31 76.1 1014.4
02 23:53 SE 7 16.09 Partly Cloudy SCT023 SCT029 27.2 25 88% 31 76.15 1015.2
02 22:53 E 9 16.09 A Few Clouds FEW019 27.8 25 85% 32 76.15 1015.2
02 21:53 E 7 16.09 A Few Clouds FEW019 27.2 24.4 85% 31 76.15 1015.1
02 20:53 E 9 16.09 Fair CLR 27.8 24.4 82% 32 76.1 1014.6
02 19:53 E 9 16.09 Fair CLR 27.8 24.4 30 27.8 82% 32 76.07 1014.0
02 18:53 E 15 16.09 Fair CLR 28.3 23.9 77% 32 76.05 1013.7
02 17:53 E 9 16.09 Fair CLR 28.9 23.3 72% 33 76.07 1013.9
02 16:53 E 13 16.09 Partly Cloudy SCT017 29.4 23.9 72% 34 76.05 1013.9
02 15:53 E 11 16.09 Partly Cloudy SCT015 30 25.6 77% 37 76.07 1014.2
02 14:53 E 11 16.09 A Few Clouds FEW016 30 25.6 77% 37 76.12 1014.8
02 13:53 E 15 16.09 Partly Cloudy SCT015 28.3 25 29.4 25.6 82% 33 76.17 1015.3
02 12:53 E 9 16.09 Partly Cloudy SCT016 28.9 25 80% 34 76.2 1015.8
02 11:53 NE 7 16.09 Mostly Cloudy BKN015 29.4 25.6 80% 36 76.25 1016.4
02 10:53 Calm 16.09 Mostly Cloudy BKN015 28.9 24.4 77% 34 76.23 1016.2
02 09:53 Calm 16.09 Partly Cloudy SCT015 27.8 25.6 88% 33 76.23 1016.2
Date Time (edt) Wind (kph) Vis. (km) Weather Sky Cond. Air Dwpt Max. Min. Relative Humidity Wind Chill (°C) Heat Index (°C) altimeter (cm) sea level (mb) 1 hr 3 hr 6 hr
6 hour
Temperature (ºC) Pressure Precipitation (cm)